Time;durP1;ratioP1;P1;durP2;ratioP2;P2;SDS_P1;SDS_P2;PMS_P1;PMS_P2;Temp;Humidity;BMP_temperature;BMP_pressure;BME280_temperature;BME280_humidity;BME280_pressure;Samples;Min_cycle;Max_cycle;Signal;HPM_P1;HPM_P2
2021/11/17 02:26:45;;;;;;;;;;;;;;;20.42;52.88;101762.34;7287838;19;153365;-48
2021/11/17 02:29:15;;;;;;;;;;;;;;;20.45;52.84;101760.91;7289171;19;152163;-49
2021/11/17 02:31:44;;;;;;;;;;;;;;;20.41;53.01;101771.88;7287980;19;153209;-48
2021/11/17 02:34:23;;;;;;;;;;;;;;;20.42;52.93;101773.56;7287820;19;154162;-48
2021/11/17 02:36:50;;;;;;;;;;;;;;;20.40;53.00;101778.63;7289481;19;152152;-48
2021/11/17 02:39:21;;;;;;;;;;;;;;;20.40;52.94;101765.44;7295252;19;153333;-48
2021/11/17 02:41:55;;;;;;;;;;;;;;;20.40;53.40;101773.00;7288962;19;151831;-48
2021/11/17 02:44:23;;;;;;;;;;;;;;;20.39;53.13;101768.53;7288783;19;153911;-48
2021/11/17 02:46:58;;;;;;;;;;;;;;;20.34;53.31;101779.78;7287043;19;152341;-48
2021/11/17 02:49:25;;;;;;;;;;;;;;;20.33;53.36;101781.75;7287260;19;152379;-48
2021/11/17 02:51:58;;;;;;;;;;;;;;;20.35;53.52;101785.09;7286854;19;153131;-48
2021/11/17 02:54:25;;;;;;;;;;;;;;;20.32;53.58;101794.09;7287254;19;153339;-48
2021/11/17 02:56:53;;;;;;;;;;;;;;;20.34;53.32;101797.47;7288439;19;152241;-48
2021/11/17 02:59:23;;;;;;;;;;;;;;;20.38;53.57;101789.31;7294332;19;152987;-48
2021/11/17 03:01:51;;;;;;;;;;;;;;;20.33;53.70;101787.38;7286190;19;151593;-49
2021/11/17 03:04:22;;;;;;;;;;;;;;;20.31;53.32;101786.78;7288089;19;152796;-48
2021/11/17 03:06:50;;;;;;;;;;;;;;;20.26;53.71;101783.16;7287174;19;153246;-48
2021/11/17 03:09:18;;;;;;;;;;;;;;;20.26;53.44;101785.97;7287602;19;151567;-48
2021/11/17 03:11:48;;;;;;;;;;;;;;;20.27;53.65;101782.00;7287012;19;152659;-48
2021/11/17 03:14:16;;;;;;;;;;;;;;;20.28;53.52;101781.72;7286210;19;153544;-48
2021/11/17 03:16:46;;;;;;;;;;;;;;;20.26;53.89;101778.34;7287997;19;151785;-48
2021/11/17 03:19:16;;;;;;;;;;;;;;;20.24;53.59;101782.59;7287637;19;153136;-48
2021/11/17 03:21:44;;;;;;;;;;;;;;;20.23;53.91;101784.56;7294591;19;152423;-48
2021/11/17 03:24:22;;;;;;;;;;;;;;;20.19;53.89;101782.59;7285628;19;151938;-48
2021/11/17 03:26:49;;;;;;;;;;;;;;;20.17;54.14;101794.09;7286741;19;154140;-48
2021/11/17 03:29:19;;;;;;;;;;;;;;;20.15;54.09;101792.72;7286543;19;151718;-49
2021/11/17 03:31:49;;;;;;;;;;;;;;;20.12;54.28;101796.13;7286382;19;152990;-48
2021/11/17 03:34:20;;;;;;;;;;;;;;;20.10;54.48;101793.59;7285746;19;152151;-48
2021/11/17 03:36:50;;;;;;;;;;;;;;;20.11;54.50;101794.41;7285544;19;152137;-48
2021/11/17 03:39:20;;;;;;;;;;;;;;;20.11;54.47;101797.22;7284152;19;153011;-48
2021/11/17 03:41:50;;;;;;;;;;;;;;;20.09;54.47;101797.50;7285757;19;154595;-48
2021/11/17 03:44:20;;;;;;;;;;;;;;;20.10;54.48;101796.38;7294581;19;151794;-48
2021/11/17 03:46:50;;;;;;;;;;;;;;;20.07;54.35;101801.72;7285739;19;152702;-48
2021/11/17 03:49:20;;;;;;;;;;;;;;;20.09;54.47;101785.44;7286529;19;152287;-48
2021/11/17 03:51:50;;;;;;;;;;;;;;;20.06;54.75;101800.03;7284454;19;152691;-49
2021/11/17 03:54:21;;;;;;;;;;;;;;;20.03;54.67;101804.28;7285775;19;153827;-48
2021/11/17 03:56:48;;;;;;;;;;;;;;;20.01;54.66;101798.09;7287273;19;152028;-48
2021/11/17 03:59:15;;;;;;;;;;;;;;;20.06;54.60;101800.03;7286406;19;152124;-48
2021/11/17 04:01:46;;;;;;;;;;;;;;;20.04;54.50;101802.28;7278613;19;153803;-47
2021/11/17 04:04:20;;;;;;;;;;;;;;;20.01;55.00;101811.28;7286244;19;151823;-48
2021/11/17 04:06:47;;;;;;;;;;;;;;;19.99;54.38;101815.19;7293182;19;152525;-48
2021/11/17 04:09:15;;;;;;;;;;;;;;;19.96;54.66;101810.16;7284173;19;152125;-49
2021/11/17 04:11:49;;;;;;;;;;;;;;;19.97;54.63;101814.66;7286025;19;153441;-49
2021/11/17 04:14:19;;;;;;;;;;;;;;;19.96;55.01;101824.19;7285614;19;153743;-49
2021/11/17 04:16:47;;;;;;;;;;;;;;;19.93;54.85;101819.16;7286493;19;151543;-48
2021/11/17 04:19:15;;;;;;;;;;;;;;;19.93;54.64;101819.16;7285424;19;151866;-49
2021/11/17 04:21:42;;;;;;;;;;;;;;;19.92;54.95;101819.44;7284829;19;153980;-48
2021/11/17 04:24:09;;;;;;;;;;;;;;;19.94;54.72;101811.59;7285544;19;152083;-49
2021/11/17 04:26:39;;;;;;;;;;;;;;;19.95;54.57;101805.66;7284606;19;152559;-49
2021/11/17 04:29:07;;;;;;;;;;;;;;;19.94;54.66;101815.19;7292312;19;154231;-48
2021/11/17 04:31:37;;;;;;;;;;;;;;;19.91;54.74;101821.38;7285261;19;153127;-48
2021/11/17 04:34:06;;;;;;;;;;;;;;;19.92;54.47;101828.69;7283739;19;152672;-49
2021/11/17 04:36:33;;;;;;;;;;;;;;;19.91;54.53;101838.22;7285748;19;152051;-49
2021/11/17 04:39:01;;;;;;;;;;;;;;;19.90;54.58;101835.69;7285564;19;153058;-48
2021/11/17 04:41:37;;;;;;;;;;;;;;;19.89;54.67;101834.03;7284677;19;153801;-49
2021/11/17 04:44:07;;;;;;;;;;;;;;;19.91;54.90;101843.81;7285776;19;153135;-48
2021/11/17 04:46:42;;;;;;;;;;;;;;;19.88;55.08;101849.16;7285020;19;153293;-49
2021/11/17 04:49:12;;;;;;;;;;;;;;;19.87;55.17;101845.53;7284295;19;154003;-49
2021/11/17 04:51:41;;;;;;;;;;;;;;;19.86;55.07;101842.97;7293354;19;151878;-48
2021/11/17 04:54:10;;;;;;;;;;;;;;;19.86;55.01;101845.78;7282010;19;153441;-49
2021/11/17 04:56:39;;;;;;;;;;;;;;;19.84;55.12;101848.91;7282896;19;152031;-48
2021/11/17 04:59:09;;;;;;;;;;;;;;;19.83;54.89;101847.22;7283029;19;153552;-49
2021/11/17 05:01:39;;;;;;;;;;;;;;;19.84;55.03;101842.44;7281695;19;153305;-48
2021/11/17 05:04:06;;;;;;;;;;;;;;;19.80;55.43;101855.34;7284930;19;152047;-49
2021/11/17 05:06:36;;;;;;;;;;;;;;;19.83;55.26;101851.97;7282996;19;153190;-48
2021/11/17 05:09:03;;;;;;;;;;;;;;;19.81;55.32;101860.66;7283485;19;153652;-49
2021/11/17 05:11:31;;;;;;;;;;;;;;;19.78;55.32;101868.78;7291962;19;151975;-48
2021/11/17 05:14:01;;;;;;;;;;;;;;;19.78;55.30;101868.78;7279815;19;153646;-48
2021/11/17 05:16:31;;;;;;;;;;;;;;;19.77;55.31;101867.94;7284195;19;152142;-49
2021/11/17 05:19:06;;;;;;;;;;;;;;;19.75;55.60;101861.81;7284003;19;152873;-49
2021/11/17 05:21:34;;;;;;;;;;;;;;;19.76;55.66;101863.47;7283242;19;153418;-49
2021/11/17 05:24:04;;;;;;;;;;;;;;;19.79;55.20;101865.72;7283483;19;151726;-48
2021/11/17 05:26:34;;;;;;;;;;;;;;;19.76;55.54;101866.25;7284557;19;152553;-49
2021/11/17 05:29:04;;;;;;;;;;;;;;;19.78;55.09;101871.59;7282294;19;152674;-48
2021/11/17 05:31:32;;;;;;;;;;;;;;;19.73;55.59;101877.22;7283285;19;152151;-48
2021/11/17 05:34:01;;;;;;;;;;;;;;;19.75;55.08;101881.44;7286802;19;152109;-49
2021/11/17 05:36:28;;;;;;;;;;;;;;;19.72;55.29;101890.38;7282175;19;152256;-49
2021/11/17 05:38:58;;;;;;;;;;;;;;;19.74;55.54;101896.56;7283851;19;151834;-49
2021/11/17 05:41:31;;;;;;;;;;;;;;;19.75;55.56;101898.25;7280431;19;153329;-48
2021/11/17 05:44:01;;;;;;;;;;;;;;;19.74;55.46;101887.31;7283264;19;151911;-48
2021/11/17 05:46:34;;;;;;;;;;;;;;;19.71;55.64;101887.88;7283906;19;152498;-47
2021/11/17 05:49:04;;;;;;;;;;;;;;;19.70;55.74;101901.06;7281450;19;154134;-48
2021/11/17 05:51:34;;;;;;;;;;;;;;;19.71;55.64;101904.69;7283476;19;151643;-52
2021/11/17 05:54:02;;;;;;;;;;;;;;;19.70;55.40;101906.66;7280434;19;153783;-49
2021/11/17 05:56:29;;;;;;;;;;;;;;;19.69;55.29;101907.78;7288947;19;154430;-48
2021/11/17 05:58:56;;;;;;;;;;;;;;;19.73;55.75;101910.84;7283224;19;152605;-49
2021/11/17 06:01:29;;;;;;;;;;;;;;;19.69;55.44;101921.78;7279169;19;154197;-49
2021/11/17 06:06:26;;;;;;;;;;;;;;;19.71;55.77;101922.38;7282020;19;151858;-48
2021/11/17 06:08:54;;;;;;;;;;;;;;;19.60;56.08;101926.28;7281478;19;153279;-49
2021/11/17 06:11:24;;;;;;;;;;;;;;;19.60;56.00;101926.28;7283712;19;151798;-48
2021/11/17 06:13:52;;;;;;;;;;;;;;;19.64;55.95;101938.59;7278817;19;153168;-48
2021/11/17 06:16:19;;;;;;;;;;;;;;;19.68;56.30;101944.50;7281144;19;154167;-48
2021/11/17 06:18:48;;;;;;;;;;;;;;;19.68;57.18;101950.94;7290376;19;151847;-49
2021/11/17 06:21:15;;;;;;;;;;;;;;;19.69;56.77;101949.84;7281142;19;153370;-49
2021/11/17 06:23:47;;;;;;;;;;;;;;;19.72;57.14;101954.88;7282099;19;151928;-48
2021/11/17 06:26:19;;;;;;;;;;;;;;;19.75;57.18;101957.13;7285065;19;152734;-49
2021/11/17 06:28:49;;;;;;;;;;;;;;;19.79;57.72;101955.47;7285627;19;154289;-49
2021/11/17 06:31:15;;;;;;;;;;;;;;;19.84;57.85;101963.88;7288767;19;152226;-49
2021/11/17 06:33:42;;;;;;;;;;;;;;;19.89;57.91;101966.69;7287430;19;152651;-49
2021/11/17 06:36:09;;;;;;;;;;;;;;;19.93;58.21;101967.81;7287215;19;153822;-49
2021/11/17 06:38:36;;;;;;;;;;;;;;;19.99;57.90;101969.47;7287948;19;151961;-48
2021/11/17 06:41:04;;;;;;;;;;;;;;;20.04;58.21;101967.78;7292661;19;153110;-49
2021/11/17 06:43:31;;;;;;;;;;;;;;;20.07;58.18;101970.06;7286464;19;151594;-48
2021/11/17 06:45:59;;;;;;;;;;;;;;;20.13;57.80;101974.53;7287076;19;152595;-48
2021/11/17 06:48:27;;;;;;;;;;;;;;;20.17;58.10;101984.09;7285456;19;154775;-48
2021/11/17 06:51:04;;;;;;;;;;;;;;;20.22;57.97;101984.06;7285881;19;151814;-49
2021/11/17 06:53:31;;;;;;;;;;;;;;;20.26;57.77;102000.06;7287310;19;152081;-49
2021/11/17 06:55:58;;;;;;;;;;;;;;;20.33;57.97;102005.44;7285920;19;154463;-49
2021/11/17 06:58:25;;;;;;;;;;;;;;;20.38;57.37;102002.63;7285061;19;152274;-48
2021/11/17 07:00:53;;;;;;;;;;;;;;;20.41;57.53;102007.66;7287242;19;152586;-49
2021/11/17 07:03:20;;;;;;;;;;;;;;;20.45;57.64;102003.16;7292557;19;151945;-49
2021/11/17 07:05:48;;;;;;;;;;;;;;;20.51;57.21;102004.88;7288968;19;152725;-48
2021/11/17 07:08:15;;;;;;;;;;;;;;;20.55;56.93;102011.59;7286975;19;154158;-49
2021/11/17 07:10:42;;;;;;;;;;;;;;;20.61;57.31;102018.88;7288717;19;151885;-48
2021/11/17 07:13:09;;;;;;;;;;;;;;;20.66;57.76;102020.84;7287112;19;153214;-48
2021/11/17 07:15:37;;;;;;;;;;;;;;;20.71;57.41;102024.50;7286424;19;154095;-48
2021/11/17 07:18:05;;;;;;;;;;;;;;;20.74;57.06;102035.16;7285219;19;152093;-48
2021/11/17 07:20:32;;;;;;;;;;;;;;;20.78;56.94;102036.28;7285904;19;152618;-48
2021/11/17 07:23:00;;;;;;;;;;;;;;;20.85;56.73;102035.97;7291226;19;153489;-49
2021/11/17 07:25:28;;;;;;;;;;;;;;;20.88;56.65;102031.75;7285408;19;152080;-49
2021/11/17 07:27:56;;;;;;;;;;;;;;;20.90;56.79;102041.56;7286038;19;152693;-48
2021/11/17 07:30:25;;;;;;;;;;;;;;;20.97;56.92;102050.56;7285346;19;151854;-49
2021/11/17 07:32:52;;;;;;;;;;;;;;;21.01;56.93;102051.66;7284214;19;152392;-49
2021/11/17 07:35:21;;;;;;;;;;;;;;;21.04;56.55;102065.13;7286039;19;153320;-48
2021/11/17 07:37:49;;;;;;;;;;;;;;;21.10;56.52;102064.00;7284248;19;151773;-48
2021/11/17 07:40:17;;;;;;;;;;;;;;;21.13;56.58;102060.66;7286274;19;151758;-48
2021/11/17 07:42:44;;;;;;;;;;;;;;;21.19;56.26;102069.91;7283660;19;154179;-48
2021/11/17 07:45:12;;;;;;;;;;;;;;;21.22;56.03;102058.94;7295066;19;151475;-49
2021/11/17 07:47:39;;;;;;;;;;;;;;;21.28;56.43;102079.44;7284895;19;153149;-48
2021/11/17 07:50:07;;;;;;;;;;;;;;;21.29;56.11;102070.75;7286822;19;151794;-49
2021/11/17 07:52:34;;;;;;;;;;;;;;;21.32;55.67;102083.38;7285161;19;153219;-48
2021/11/17 07:55:02;;;;;;;;;;;;;;;21.36;55.90;102092.06;7283112;19;153993;-48
2021/11/17 07:57:29;;;;;;;;;;;;;;;21.38;55.49;102078.56;7285140;19;151558;-48
2021/11/17 07:59:57;;;;;;;;;;;;;;;21.40;55.42;102090.34;7284756;19;153073;-49
2021/11/17 08:02:25;;;;;;;;;;;;;;;21.44;55.08;102080.25;7281379;19;153336;-48
2021/11/17 08:04:52;;;;;;;;;;;;;;;21.45;55.52;102094.00;7286604;19;151985;-48
2021/11/17 08:07:19;;;;;;;;;;;;;;;21.48;54.91;102086.97;7290956;19;152774;-48
2021/11/17 08:09:48;;;;;;;;;;;;;;;21.49;55.25;102097.91;7286601;19;151828;-48
2021/11/17 08:12:15;;;;;;;;;;;;;;;21.49;55.19;102106.34;7284265;19;152602;-47
2021/11/17 08:14:42;;;;;;;;;;;;;;;21.52;55.06;102104.97;7282597;19;153857;-49
2021/11/17 08:17:09;;;;;;;;;;;;;;;21.53;54.73;102098.22;7286620;19;152002;-48
2021/11/17 08:19:36;;;;;;;;;;;;;;;21.55;55.00;102099.59;7285099;19;153681;-48
2021/11/17 08:24:37;;;;;;;;;;;;;;;21.56;54.84;102106.91;7284507;19;151508;-49
2021/11/17 08:27:06;;;;;;;;;;;;;;;21.57;54.92;102108.59;7283636;19;153481;-48
2021/11/17 08:29:33;;;;;;;;;;;;;;;21.60;55.26;102112.78;7290518;19;153370;-49
2021/11/17 08:32:00;;;;;;;;;;;;;;;21.59;55.00;102117.56;7286580;19;152790;-48
2021/11/17 08:34:27;;;;;;;;;;;;;;;21.60;54.79;102113.63;7280655;19;154035;-48
2021/11/17 08:36:55;;;;;;;;;;;;;;;21.59;54.15;102117.56;7283180;19;152766;-51
2021/11/17 08:39:23;;;;;;;;;;;;;;;21.63;54.00;102129.94;7284938;19;152653;-47
2021/11/17 08:41:51;;;;;;;;;;;;;;;21.62;54.03;102133.03;7282697;19;153863;-48
2021/11/17 08:44:18;;;;;;;;;;;;;;;21.60;53.91;102135.28;7285368;19;152351;-48
2021/11/17 08:46:51;;;;;;;;;;;;;;;21.59;52.78;102142.88;7286037;19;152917;-49
2021/11/17 08:49:18;;;;;;;;;;;;;;;21.60;53.35;102138.94;7283179;19;153633;-49
2021/11/17 08:51:46;;;;;;;;;;;;;;;21.57;53.47;102144.31;7291288;19;152230;-49
2021/11/17 08:54:15;;;;;;;;;;;;;;;21.56;53.40;102149.09;7282432;19;153568;-49
2021/11/17 08:56:42;;;;;;;;;;;;;;;21.56;53.64;102157.53;7285527;19;151913;-48
2021/11/17 08:59:09;;;;;;;;;;;;;;;21.54;53.42;102151.34;7282477;19;153867;-49
2021/11/17 09:01:37;;;;;;;;;;;;;;;21.54;53.04;102156.97;7281130;19;154025;-52
2021/11/17 09:04:06;;;;;;;;;;;;;;;21.55;53.54;102152.19;7285042;19;151636;-49
2021/11/17 09:06:35;;;;;;;;;;;;;;;21.55;53.08;102167.09;7285025;19;153455;-50
2021/11/17 09:09:06;;;;;;;;;;;;;;;21.55;53.31;102166.25;7280745;19;153972;-48
2021/11/17 09:11:35;;;;;;;;;;;;;;;21.53;52.92;102168.50;7267519;19;155255;-49
2021/11/17 09:14:03;;;;;;;;;;;;;;;21.52;53.24;102164.00;7277299;19;152103;-48
2021/11/17 09:16:32;;;;;;;;;;;;;;;21.50;53.31;102167.09;7282144;19;151905;-49
2021/11/17 09:19:01;;;;;;;;;;;;;;;21.50;52.77;102171.88;7284258;19;153237;-48
2021/11/17 09:21:30;;;;;;;;;;;;;;;21.49;52.77;102181.44;7281259;19;153392;-51
2021/11/17 09:23:57;;;;;;;;;;;;;;;21.47;53.10;102183.72;7283539;19;152506;-48
2021/11/17 09:26:24;;;;;;;;;;;;;;;21.47;52.86;102181.75;7284209;19;152848;-48
2021/11/17 09:28:52;;;;;;;;;;;;;;;21.45;53.10;102181.16;7282394;19;153658;-48
2021/11/17 09:31:20;;;;;;;;;;;;;;;21.44;52.96;102182.28;7281323;19;151902;-47
2021/11/17 09:33:47;;;;;;;;;;;;;;;21.43;52.84;102191.88;7287717;19;153271;-48
2021/11/17 09:36:16;;;;;;;;;;;;;;;21.41;53.07;102208.19;7283637;19;151715;-49
2021/11/17 09:38:43;;;;;;;;;;;;;;;21.40;52.96;102211.25;7282200;19;153270;-48
2021/11/17 09:41:12;;;;;;;;;;;;;;;21.37;52.78;102204.25;7280187;19;153534;-48
2021/11/17 09:43:43;;;;;;;;;;;;;;;21.38;52.62;102214.38;7281835;19;151816;-48
2021/11/17 09:46:11;;;;;;;;;;;;;;;21.39;53.14;102218.88;7281506;19;153329;-49
2021/11/17 09:48:39;;;;;;;;;;;;;;;21.39;52.67;102218.88;7278909;19;152332;-48
2021/11/17 09:51:09;;;;;;;;;;;;;;;21.34;52.65;102220.84;7282998;19;151642;-48
2021/11/17 09:53:36;;;;;;;;;;;;;;;21.35;52.90;102222.53;7280920;19;153557;-48
2021/11/17 09:56:11;;;;;;;;;;;;;;;21.35;52.43;102222.53;7289373;19;154063;-49
2021/11/17 09:58:40;;;;;;;;;;;;;;;21.32;52.50;102223.09;7283003;19;153555;-49
2021/11/17 10:01:08;;;;;;;;;;;;;;;21.30;52.67;102226.19;7282002;19;152504;-48
2021/11/17 10:03:38;;;;;;;;;;;;;;;21.27;52.52;102226.75;7289076;19;151973;-48
2021/11/17 10:09:16;;;;;;;;;;;;;;;21.26;52.57;102222.25;7286227;19;153919;-48
2021/11/17 10:14:05;;;;;;;;;;;;;;;21.24;52.06;102218.88;7282781;19;153699;-50
2021/11/17 10:16:32;;;;;;;;;;;;;;;21.24;51.18;102224.50;7287994;19;153224;-50
2021/11/17 10:19:03;;;;;;;;;;;;;;;21.25;50.47;102214.97;7293065;19;151960;-50
2021/11/17 10:21:31;;;;;;;;;;;;;;;21.15;50.60;102220.56;7287379;19;153443;-48
2021/11/17 10:24:01;;;;;;;;;;;;;;;21.16;50.69;102219.47;7287569;19;151803;-49
2021/11/17 10:26:29;;;;;;;;;;;;;;;21.15;50.68;102221.44;7288798;19;153455;-49
2021/11/17 10:28:59;;;;;;;;;;;;;;;21.21;49.99;102234.34;7285228;19;153549;-49
2021/11/17 10:31:29;;;;;;;;;;;;;;;21.22;49.77;102241.66;7286094;19;152022;-50
2021/11/17 10:33:57;;;;;;;;;;;;;;;21.20;50.09;102240.25;7288925;19;153586;-49
2021/11/17 10:36:32;;;;;;;;;;;;;;;21.18;49.96;102234.91;7286499;19;153111;-49
2021/11/17 10:38:59;;;;;;;;;;;;;;;21.15;49.92;102234.63;7286872;19;152122;-49
2021/11/17 10:41:28;;;;;;;;;;;;;;;21.13;49.89;102225.63;7292408;19;155026;-49
2021/11/17 10:43:59;;;;;;;;;;;;;;;21.16;50.17;102237.16;7286392;19;151700;-49
2021/11/17 10:46:28;;;;;;;;;;;;;;;21.09;49.98;102230.94;7288076;19;153113;-50
2021/11/17 10:48:56;;;;;;;;;;;;;;;21.05;49.28;102227.00;7285447;19;153497;-48
2021/11/17 10:51:27;;;;;;;;;;;;;;;21.00;49.63;102234.59;7288923;19;151739;-49
2021/11/17 10:53:55;;;;;;;;;;;;;;;21.00;49.44;102226.16;7288189;19;152532;-49
2021/11/17 10:56:24;;;;;;;;;;;;;;;20.94;49.74;102232.91;7286888;19;154398;-49
2021/11/17 10:58:52;;;;;;;;;;;;;;;20.99;49.59;102235.69;7286252;19;152237;-50
2021/11/17 11:01:21;;;;;;;;;;;;;;;20.97;49.70;102237.97;7284875;19;152574;-48
2021/11/17 11:03:50;;;;;;;;;;;;;;;21.01;49.28;102247.53;7293605;19;154060;-50
2021/11/17 11:06:20;;;;;;;;;;;;;;;20.97;49.62;102249.22;7286933;19;152437;-50
2021/11/17 11:08:49;;;;;;;;;;;;;;;20.94;49.12;102244.97;7286998;19;153692;-50
2021/11/17 11:11:16;;;;;;;;;;;;;;;20.93;49.35;102243.31;7286490;19;151733;-48
2021/11/17 11:13:46;;;;;;;;;;;;;;;21.01;49.16;102244.72;7283616;19;152886;-49
2021/11/17 11:16:15;;;;;;;;;;;;;;;20.93;49.43;102231.22;7282765;19;153565;-49
2021/11/17 11:18:47;;;;;;;;;;;;;;;20.95;49.16;102228.97;7286046;19;151942;-49
2021/11/17 11:21:16;;;;;;;;;;;;;;;20.96;49.58;102225.03;7286923;19;153197;-49
2021/11/17 11:23:46;;;;;;;;;;;;;;;20.91;49.47;102225.88;7293026;19;154035;-49
2021/11/17 11:26:14;;;;;;;;;;;;;;;20.86;49.15;102218.28;7288722;19;152767;-48
2021/11/17 11:28:49;;;;;;;;;;;;;;;20.91;49.73;102225.88;7287364;19;154274;-49
2021/11/17 11:31:20;;;;;;;;;;;;;;;20.89;49.36;102218.88;7286299;19;151777;-49
2021/11/17 11:33:49;;;;;;;;;;;;;;;20.90;49.32;102220.53;7287039;19;153383;-50
2021/11/17 11:36:16;;;;;;;;;;;;;;;20.89;49.54;102218.88;7285123;19;153327;-49
2021/11/17 11:38:45;;;;;;;;;;;;;;;20.89;49.33;102225.31;7287459;19;152247;-49
2021/11/17 11:41:23;;;;;;;;;;;;;;;20.91;49.24;102222.22;7285511;19;152748;-49
2021/11/17 11:44:09;;;;;;;;;;;;;;;20.84;49.14;102222.50;7284831;19;154038;-49
2021/11/17 11:46:39;;;;;;;;;;;;;;;20.82;49.30;102221.94;7292757;19;152371;-48
2021/11/17 11:49:29;;;;;;;;;;;;;;;20.76;49.38;102226.69;7285582;19;153000;-49
2021/11/17 11:52:05;;;;;;;;;;;;;;;20.80;49.54;102225.00;7286784;19;151797;-48
2021/11/17 11:54:36;;;;;;;;;;;;;;;20.79;48.91;102220.53;7285143;19;152859;-49
2021/11/17 11:57:03;;;;;;;;;;;;;;;20.78;49.36;102213.22;7285358;19;153300;-49
2021/11/17 11:59:30;;;;;;;;;;;;;;;20.82;49.36;102210.69;7287288;19;151981;-50
2021/11/17 12:02:07;;;;;;;;;;;;;;;20.84;48.95;102211.28;7284129;19;153207;-49
2021/11/17 12:04:41;;;;;;;;;;;;;;;20.81;49.01;102228.66;7286309;19;153338;-49
2021/11/17 12:07:10;;;;;;;;;;;;;;;20.85;49.49;102236.25;7286035;19;152223;-48
2021/11/17 12:09:50;;;;;;;;;;;;;;;20.82;49.43;102225.59;7291629;19;153214;-49
2021/11/17 12:12:19;;;;;;;;;;;;;;;20.83;49.44;102226.44;7284590;19;151771;-48
2021/11/17 12:15:06;;;;;;;;;;;;;;;20.80;48.91;102227.81;7282752;19;152797;-49
2021/11/17 12:17:32;;;;;;;;;;;;;;;20.78;49.14;102240.47;7284319;19;153424;-48
2021/11/17 12:20:15;;;;;;;;;;;;;;;20.79;48.84;102248.63;7284476;19;152559;-50
2021/11/17 12:22:46;;;;;;;;;;;;;;;20.78;48.87;102227.28;7281005;19;152399;-48
2021/11/17 12:25:23;;;;;;;;;;;;;;;20.80;49.25;102233.44;7283553;19;153702;-49
2021/11/17 12:27:55;;;;;;;;;;;;;;;20.77;49.21;102227.53;7286440;19;151572;-48
2021/11/17 12:30:32;;;;;;;;;;;;;;;20.76;49.13;102214.63;7285899;19;152819;-50
2021/11/17 12:33:01;;;;;;;;;;;;;;;20.73;49.47;102218.84;7290191;19;152443;-49
2021/11/17 12:35:30;;;;;;;;;;;;;;;20.72;49.04;102213.50;7283450;19;152754;-49
2021/11/17 12:37:57;;;;;;;;;;;;;;;20.75;49.29;102212.94;7285234;19;153357;-50
2021/11/17 12:40:35;;;;;;;;;;;;;;;20.75;49.31;102213.78;7283816;19;152135;-49
2021/11/17 12:43:04;;;;;;;;;;;;;;;20.74;49.13;102220.53;7283917;19;153055;-49
2021/11/17 12:45:34;;;;;;;;;;;;;;;20.74;49.24;102220.53;7283306;19;154123;-50
2021/11/17 12:48:10;;;;;;;;;;;;;;;20.74;48.82;102228.97;7283187;19;152053;-48
2021/11/17 12:50:42;;;;;;;;;;;;;;;20.75;48.76;102224.19;7284067;19;152699;-49
2021/11/17 12:53:20;;;;;;;;;;;;;;;20.74;49.25;102233.72;7281933;19;154369;-49
2021/11/17 12:55:51;;;;;;;;;;;;;;;20.74;48.87;102234.56;7288396;19;151750;-49
2021/11/17 12:58:19;;;;;;;;;;;;;;;20.72;49.20;102242.41;7282204;19;152288;-49
2021/11/17 13:00:47;;;;;;;;;;;;;;;20.74;49.24;102226.16;7281840;19;152901;-50
2021/11/17 13:03:24;;;;;;;;;;;;;;;20.75;49.03;102229.81;7284335;19;152701;-49
2021/11/17 13:06:01;;;;;;;;;;;;;;;20.75;49.01;102225.03;7282500;19;154273;-49
2021/11/17 13:08:36;;;;;;;;;;;;;;;20.70;49.05;102230.63;7282639;19;152105;-50
2021/11/17 13:11:05;;;;;;;;;;;;;;;20.74;49.12;102226.16;7283627;19;152691;-50
2021/11/17 13:13:42;;;;;;;;;;;;;;;20.67;49.28;102233.97;7281839;19;153988;-48
2021/11/17 13:16:12;;;;;;;;;;;;;;;20.72;49.14;102236.81;7276950;19;151890;-49
2021/11/17 13:18:39;;;;;;;;;;;;;;;20.72;48.82;102236.81;7289981;19;152797;-48
2021/11/17 13:21:15;;;;;;;;;;;;;;;20.71;49.16;102239.91;7283177;19;152005;-49
2021/11/17 13:24:00;;;;;;;;;;;;;;;20.72;48.72;102241.56;7284621;19;153901;-49
2021/11/17 13:26:28;;;;;;;;;;;;;;;20.70;48.62;102239.06;7281480;19;153347;-49
2021/11/17 13:28:56;;;;;;;;;;;;;;;20.72;48.76;102235.97;7284369;19;151911;-49
2021/11/17 13:31:32;;;;;;;;;;;;;;;20.74;48.97;102242.16;7281743;19;153006;-48
2021/11/17 13:33:59;;;;;;;;;;;;;;;20.78;49.00;102237.66;7282194;19;152379;-49
2021/11/17 13:36:36;;;;;;;;;;;;;;;20.82;48.54;102238.78;7289961;19;151999;-49
2021/11/17 13:39:03;;;;;;;;;;;;;;;20.87;48.73;102238.78;7294523;19;153265;-48
2021/11/17 13:41:41;;;;;;;;;;;;;;;20.91;48.80;102247.50;7289111;19;152356;-49
2021/11/17 13:44:08;;;;;;;;;;;;;;;20.94;48.96;102238.53;7290421;19;154104;-50
2021/11/17 13:46:35;;;;;;;;;;;;;;;20.98;49.01;102231.22;7287126;19;154321;-49
2021/11/17 13:49:03;;;;;;;;;;;;;;;21.03;49.00;102248.09;7288464;19;151699;-50
2021/11/17 13:51:30;;;;;;;;;;;;;;;21.05;48.60;102241.06;7288096;19;153512;-48
2021/11/17 13:53:56;;;;;;;;;;;;;;;21.09;48.80;102238.53;7289749;19;154117;-48
2021/11/17 13:56:26;;;;;;;;;;;;;;;21.14;49.03;102241.38;7286548;19;151596;-49
2021/11/17 13:58:53;;;;;;;;;;;;;;;21.18;49.11;102236.88;7290709;19;153241;-50
2021/11/17 14:01:20;;;;;;;;;;;;;;;21.20;48.91;102240.25;7293278;19;153426;-49
2021/11/17 14:03:47;;;;;;;;;;;;;;;21.24;49.09;102255.44;7288320;19;153415;-48
2021/11/17 14:06:16;;;;;;;;;;;;;;;21.26;48.94;102256.81;7289440;19;153766;-48
2021/11/17 14:08:43;;;;;;;;;;;;;;;21.30;49.17;102249.50;7287755;19;151957;-48
2021/11/17 14:11:16;;;;;;;;;;;;;;;21.37;48.90;102254.00;7286007;19;152089;-48
2021/11/17 14:13:45;;;;;;;;;;;;;;;21.27;45.80;102255.69;7286534;19;152606;-49
2021/11/17 14:16:12;;;;;;;;;;;;;;;21.15;41.89;102257.13;7284352;19;152228;-48
2021/11/17 14:18:39;;;;;;;;;;;;;;;21.09;39.91;102255.38;7284147;19;151872;-49
2021/11/17 14:21:07;;;;;;;;;;;;;;;20.86;40.77;102248.34;7285715;19;152680;-50
2021/11/17 14:23:34;;;;;;;;;;;;;;;21.01;41.27;102248.38;7294755;19;152146;-49
2021/11/17 14:26:02;;;;;;;;;;;;;;;21.10;42.33;102251.47;7286783;19;153934;-49
2021/11/17 14:28:30;;;;;;;;;;;;;;;21.15;42.93;102248.69;7288326;19;152004;-50
2021/11/17 14:31:04;;;;;;;;;;;;;;;21.17;43.49;102250.06;7289966;19;152824;-48
2021/11/17 14:33:32;;;;;;;;;;;;;;;21.20;44.07;102259.94;7286560;19;153786;-48
2021/11/17 14:36:00;;;;;;;;;;;;;;;21.22;44.35;102260.47;7286360;19;151893;-49
2021/11/17 14:38:29;;;;;;;;;;;;;;;21.20;44.64;102252.34;7288159;19;152787;-50
2021/11/17 14:40:56;;;;;;;;;;;;;;;21.22;45.22;102252.88;7286356;19;152917;-50
2021/11/17 14:43:23;;;;;;;;;;;;;;;21.23;45.37;102254.59;7286971;19;152138;-49
2021/11/17 14:45:50;;;;;;;;;;;;;;;21.25;45.28;102254.31;7291821;19;153616;-49
2021/11/17 14:48:18;;;;;;;;;;;;;;;21.26;45.49;102241.91;7286490;19;151947;-49
2021/11/17 14:51:02;;;;;;;;;;;;;;;21.27;45.48;102241.66;7286748;19;152123;-48
2021/11/17 14:53:50;;;;;;;;;;;;;;;21.28;45.79;102237.72;7282571;19;152689;-48
2021/11/17 14:56:17;;;;;;;;;;;;;;;21.28;45.57;102248.13;7288361;19;151737;-50
2021/11/17 14:58:44;;;;;;;;;;;;;;;21.29;45.81;102252.63;7286573;19;153340;-49
2021/11/17 15:01:16;;;;;;;;;;;;;;;21.29;45.93;102245.03;7283170;19;153214;-48
2021/11/17 15:03:43;;;;;;;;;;;;;;;21.28;45.89;102250.94;7287102;19;151760;-49
2021/11/17 15:06:10;;;;;;;;;;;;;;;21.29;45.79;102247.00;7287311;19;152989;-49
2021/11/17 15:08:37;;;;;;;;;;;;;;;21.30;45.89;102254.31;7293858;19;153464;-50
2021/11/17 15:11:03;;;;;;;;;;;;;;;21.29;46.11;102259.09;7288732;19;152753;-48
2021/11/17 15:13:30;;;;;;;;;;;;;;;21.28;45.97;102250.94;7287103;19;154255;-49
2021/11/17 15:16:09;;;;;;;;;;;;;;;21.28;45.79;102263.03;7287945;19;151797;-49